sensor_id;sensor_type;location;lat;lon;timestamp;pressure;altitude;pressure_sealevel;temperature;humidity
20009;BME280;10165;42.662;23.260;2023-06-10T00:00:20;93770.81;;;20.97;73.89
20009;BME280;10165;42.662;23.260;2023-06-10T00:02:47;93764.16;;;21.02;73.84
20009;BME280;10165;42.662;23.260;2023-06-10T00:05:14;93777.53;;;21.13;73.46
20009;BME280;10165;42.662;23.260;2023-06-10T00:07:42;93772.16;;;21.29;72.72
20009;BME280;10165;42.662;23.260;2023-06-10T00:10:09;93767.16;;;21.08;73.18
20009;BME280;10165;42.662;23.260;2023-06-10T00:12:37;93767.88;;;21.12;73.18
20009;BME280;10165;42.662;23.260;2023-06-10T00:15:05;93777.69;;;21.25;72.21
20009;BME280;10165;42.662;23.260;2023-06-10T00:17:33;93781.00;;;20.93;72.95
20009;BME280;10165;42.662;23.260;2023-06-10T00:20:00;93776.50;;;21.26;72.11
20009;BME280;10165;42.662;23.260;2023-06-10T00:22:30;93778.78;;;21.28;71.80
20009;BME280;10165;42.662;23.260;2023-06-10T00:24:58;93775.41;;;21.00;71.58
20009;BME280;10165;42.662;23.260;2023-06-10T00:27:25;93773.84;;;21.03;72.73
20009;BME280;10165;42.662;23.260;2023-06-10T00:29:57;93774.91;;;20.66;74.34
20009;BME280;10165;42.662;23.260;2023-06-10T00:32:24;93770.22;;;21.29;72.04
20009;BME280;10165;42.662;23.260;2023-06-10T00:34:51;93765.47;;;21.33;70.64
20009;BME280;10165;42.662;23.260;2023-06-10T00:37:18;93772.84;;;20.74;73.09
20009;BME280;10165;42.662;23.260;2023-06-10T00:39:44;93773.75;;;20.87;73.32
20009;BME280;10165;42.662;23.260;2023-06-10T00:42:11;93768.47;;;20.99;72.51
20009;BME280;10165;42.662;23.260;2023-06-10T00:44:38;93774.88;;;20.89;72.68
20009;BME280;10165;42.662;23.260;2023-06-10T00:47:05;93775.31;;;20.88;72.71
20009;BME280;10165;42.662;23.260;2023-06-10T00:49:33;93765.19;;;21.08;72.45
20009;BME280;10165;42.662;23.260;2023-06-10T00:52:02;93769.69;;;21.18;72.14
20009;BME280;10165;42.662;23.260;2023-06-10T00:54:30;93768.59;;;20.53;74.78
20009;BME280;10165;42.662;23.260;2023-06-10T00:56:57;93768.44;;;20.14;77.13
20009;BME280;10165;42.662;23.260;2023-06-10T00:59:24;93769.91;;;19.95;78.71
20009;BME280;10165;42.662;23.260;2023-06-10T01:01:52;93768.75;;;19.96;78.33
20009;BME280;10165;42.662;23.260;2023-06-10T01:04:19;93772.97;;;19.97;79.67
20009;BME280;10165;42.662;23.260;2023-06-10T01:12:26;93781.66;;;20.12;78.34
20009;BME280;10165;42.662;23.260;2023-06-10T01:14:55;93783.75;;;20.27;77.75
20009;BME280;10165;42.662;23.260;2023-06-10T01:17:23;93785.66;;;20.30;77.23
20009;BME280;10165;42.662;23.260;2023-06-10T01:19:54;93779.53;;;20.69;75.11
20009;BME280;10165;42.662;23.260;2023-06-10T01:22:25;93784.47;;;20.74;74.04
20009;BME280;10165;42.662;23.260;2023-06-10T01:24:55;93776.03;;;21.12;72.38
20009;BME280;10165;42.662;23.260;2023-06-10T01:27:30;93781.16;;;21.26;71.14
20009;BME280;10165;42.662;23.260;2023-06-10T01:30:08;93774.56;;;21.43;70.35
20009;BME280;10165;42.662;23.260;2023-06-10T01:32:40;93778.66;;;21.15;69.73
20009;BME280;10165;42.662;23.260;2023-06-10T01:35:10;93773.75;;;21.46;68.53
20009;BME280;10165;42.662;23.260;2023-06-10T01:37:39;93777.19;;;21.30;69.31
20009;BME280;10165;42.662;23.260;2023-06-10T01:40:07;93777.56;;;21.49;68.89
20009;BME280;10165;42.662;23.260;2023-06-10T01:42:34;93767.72;;;21.55;68.82
20009;BME280;10165;42.662;23.260;2023-06-10T01:45:01;93769.09;;;21.63;68.07
20009;BME280;10165;42.662;23.260;2023-06-10T01:47:28;93774.09;;;21.48;67.90
20009;BME280;10165;42.662;23.260;2023-06-10T01:49:55;93771.03;;;21.62;67.74
20009;BME280;10165;42.662;23.260;2023-06-10T01:52:22;93772.22;;;21.45;68.32
20009;BME280;10165;42.662;23.260;2023-06-10T01:54:49;93766.81;;;21.61;67.97
20009;BME280;10165;42.662;23.260;2023-06-10T01:57:16;93760.38;;;21.71;67.17
20009;BME280;10165;42.662;23.260;2023-06-10T01:59:42;93760.03;;;21.69;67.72
20009;BME280;10165;42.662;23.260;2023-06-10T02:02:10;93760.25;;;21.42;68.62
20009;BME280;10165;42.662;23.260;2023-06-10T02:04:37;93750.22;;;21.56;68.20
20009;BME280;10165;42.662;23.260;2023-06-10T02:07:04;93748.41;;;21.69;67.74
20009;BME280;10165;42.662;23.260;2023-06-10T02:09:32;93749.59;;;21.32;68.98
20009;BME280;10165;42.662;23.260;2023-06-10T02:12:04;93748.69;;;21.55;67.88
20009;BME280;10165;42.662;23.260;2023-06-10T02:14:33;93742.09;;;21.72;67.49
20009;BME280;10165;42.662;23.260;2023-06-10T02:17:00;93749.22;;;21.50;68.22
20009;BME280;10165;42.662;23.260;2023-06-10T02:19:27;93745.44;;;21.79;66.63
20009;BME280;10165;42.662;23.260;2023-06-10T02:21:54;93743.31;;;21.87;66.07
20009;BME280;10165;42.662;23.260;2023-06-10T02:24:21;93734.09;;;21.81;66.12
20009;BME280;10165;42.662;23.260;2023-06-10T02:26:48;93739.47;;;21.68;66.84
20009;BME280;10165;42.662;23.260;2023-06-10T02:29:15;93738.22;;;22.05;65.05
20009;BME280;10165;42.662;23.260;2023-06-10T02:31:42;93731.19;;;21.39;67.50
20009;BME280;10165;42.662;23.260;2023-06-10T02:34:08;93734.63;;;20.45;72.46
20009;BME280;10165;42.662;23.260;2023-06-10T02:36:35;93735.66;;;20.28;73.96
20009;BME280;10165;42.662;23.260;2023-06-10T02:39:03;93724.47;;;20.02;76.16
20009;BME280;10165;42.662;23.260;2023-06-10T02:41:31;93725.84;;;20.14;76.04
20009;BME280;10165;42.662;23.260;2023-06-10T02:43:58;93728.63;;;20.34;76.03
20009;BME280;10165;42.662;23.260;2023-06-10T02:46:24;93719.47;;;20.87;73.38
20009;BME280;10165;42.662;23.260;2023-06-10T02:48:51;93725.66;;;20.68;73.41
20009;BME280;10165;42.662;23.260;2023-06-10T02:51:18;93713.63;;;20.49;74.72
20009;BME280;10165;42.662;23.260;2023-06-10T02:53:45;93716.75;;;20.67;74.34
20009;BME280;10165;42.662;23.260;2023-06-10T02:56:13;93718.13;;;20.95;73.56
20009;BME280;10165;42.662;23.260;2023-06-10T02:58:40;93712.97;;;21.20;72.21
20009;BME280;10165;42.662;23.260;2023-06-10T03:01:06;93713.97;;;21.46;71.16
20009;BME280;10165;42.662;23.260;2023-06-10T03:03:33;93722.34;;;21.35;72.02
20009;BME280;10165;42.662;23.260;2023-06-10T03:06:00;93722.19;;;21.42;71.53
20009;BME280;10165;42.662;23.260;2023-06-10T03:08:27;93726.59;;;21.36;71.92
20009;BME280;10165;42.662;23.260;2023-06-10T03:10:54;93733.66;;;21.14;72.91
20009;BME280;10165;42.662;23.260;2023-06-10T03:13:21;93733.19;;;20.99;74.09
20009;BME280;10165;42.662;23.260;2023-06-10T03:15:48;93734.53;;;21.27;72.72
20009;BME280;10165;42.662;23.260;2023-06-10T03:18:15;93733.97;;;20.37;76.97
20009;BME280;10165;42.662;23.260;2023-06-10T03:20:42;93737.94;;;19.60;82.59
20009;BME280;10165;42.662;23.260;2023-06-10T03:23:11;93742.94;;;19.88;82.04
20009;BME280;10165;42.662;23.260;2023-06-10T03:25:37;93738.94;;;20.42;79.08
20009;BME280;10165;42.662;23.260;2023-06-10T03:28:04;93752.66;;;20.32;77.71
20009;BME280;10165;42.662;23.260;2023-06-10T03:30:31;93764.50;;;19.95;78.68
20009;BME280;10165;42.662;23.260;2023-06-10T03:32:58;93761.75;;;19.72;79.57
20009;BME280;10165;42.662;23.260;2023-06-10T03:35:25;93764.97;;;19.90;79.47
20009;BME280;10165;42.662;23.260;2023-06-10T03:37:52;93760.63;;;19.96;78.95
20009;BME280;10165;42.662;23.260;2023-06-10T03:40:19;93767.63;;;19.67;79.98
20009;BME280;10165;42.662;23.260;2023-06-10T03:42:45;93755.84;;;20.03;79.19
20009;BME280;10165;42.662;23.260;2023-06-10T03:45:12;93762.09;;;20.47;77.50
20009;BME280;10165;42.662;23.260;2023-06-10T03:47:39;93757.47;;;20.67;75.73
20009;BME280;10165;42.662;23.260;2023-06-10T03:50:08;93752.22;;;20.57;76.57
20009;BME280;10165;42.662;23.260;2023-06-10T03:52:38;93757.94;;;20.62;75.82
20009;BME280;10165;42.662;23.260;2023-06-10T03:55:06;93745.19;;;20.59;76.57
20009;BME280;10165;42.662;23.260;2023-06-10T03:57:33;93752.66;;;20.75;76.36
20009;BME280;10165;42.662;23.260;2023-06-10T04:00:00;93748.00;;;20.95;75.31
20009;BME280;10165;42.662;23.260;2023-06-10T04:02:32;93742.94;;;20.77;75.55
20009;BME280;10165;42.662;23.260;2023-06-10T04:05:01;93753.19;;;20.66;76.00
20009;BME280;10165;42.662;23.260;2023-06-10T04:07:28;93753.16;;;20.70;75.74
20009;BME280;10165;42.662;23.260;2023-06-10T04:09:56;93750.56;;;20.82;75.18
20009;BME280;10165;42.662;23.260;2023-06-10T04:12:23;93749.03;;;20.81;74.60
20009;BME280;10165;42.662;23.260;2023-06-10T04:14:50;93752.53;;;20.82;76.04
20009;BME280;10165;42.662;23.260;2023-06-10T04:17:17;93745.13;;;21.02;75.31
20009;BME280;10165;42.662;23.260;2023-06-10T04:19:44;93757.06;;;20.88;75.05
20009;BME280;10165;42.662;23.260;2023-06-10T04:22:12;93759.91;;;20.62;76.04
20009;BME280;10165;42.662;23.260;2023-06-10T04:24:38;93761.44;;;20.82;75.69
20009;BME280;10165;42.662;23.260;2023-06-10T04:27:05;93755.53;;;21.27;74.54
20009;BME280;10165;42.662;23.260;2023-06-10T04:29:32;93761.09;;;21.20;73.23
20009;BME280;10165;42.662;23.260;2023-06-10T04:31:59;93755.16;;;21.05;74.06
20009;BME280;10165;42.662;23.260;2023-06-10T04:34:28;93750.03;;;21.30;73.41
20009;BME280;10165;42.662;23.260;2023-06-10T04:36:55;93758.03;;;21.18;73.39
20009;BME280;10165;42.662;23.260;2023-06-10T04:39:22;93759.19;;;20.97;74.48
20009;BME280;10165;42.662;23.260;2023-06-10T04:41:49;93761.22;;;20.93;74.49
20009;BME280;10165;42.662;23.260;2023-06-10T04:48:02;93760.34;;;21.19;73.27
20009;BME280;10165;42.662;23.260;2023-06-10T04:50:29;93763.03;;;20.80;74.32
20009;BME280;10165;42.662;23.260;2023-06-10T04:52:56;93761.59;;;20.95;74.91
20009;BME280;10165;42.662;23.260;2023-06-10T04:55:23;93756.69;;;20.86;75.35
20009;BME280;10165;42.662;23.260;2023-06-10T04:57:50;93758.72;;;21.02;75.12
20009;BME280;10165;42.662;23.260;2023-06-10T05:00:18;93753.28;;;20.82;75.53
20009;BME280;10165;42.662;23.260;2023-06-10T05:02:44;93753.63;;;20.65;76.67
20009;BME280;10165;42.662;23.260;2023-06-10T05:05:11;93757.47;;;20.67;77.22
20009;BME280;10165;42.662;23.260;2023-06-10T05:07:38;93755.94;;;20.86;76.76
20009;BME280;10165;42.662;23.260;2023-06-10T05:10:05;93756.59;;;21.13;75.39
20009;BME280;10165;42.662;23.260;2023-06-10T05:12:32;93759.56;;;20.99;74.90
20009;BME280;10165;42.662;23.260;2023-06-10T05:14:59;93755.59;;;20.84;75.37
20009;BME280;10165;42.662;23.260;2023-06-10T05:17:26;93757.06;;;20.88;75.10
20009;BME280;10165;42.662;23.260;2023-06-10T05:19:53;93747.00;;;21.05;74.04
20009;BME280;10165;42.662;23.260;2023-06-10T05:22:19;93759.34;;;21.29;72.40
20009;BME280;10165;42.662;23.260;2023-06-10T05:24:46;93755.63;;;21.39;72.15
20009;BME280;10165;42.662;23.260;2023-06-10T05:27:13;93758.44;;;21.36;71.88
20009;BME280;10165;42.662;23.260;2023-06-10T05:29:39;93759.69;;;21.31;74.07
20009;BME280;10165;42.662;23.260;2023-06-10T05:32:07;93758.88;;;21.15;73.79
20009;BME280;10165;42.662;23.260;2023-06-10T05:34:33;93759.28;;;21.13;73.48
20009;BME280;10165;42.662;23.260;2023-06-10T05:37:00;93760.47;;;21.12;73.65
20009;BME280;10165;42.662;23.260;2023-06-10T05:39:27;93757.81;;;21.28;73.71
20009;BME280;10165;42.662;23.260;2023-06-10T05:41:54;93764.84;;;21.45;74.06
20009;BME280;10165;42.662;23.260;2023-06-10T05:44:21;93765.19;;;21.08;74.46
20009;BME280;10165;42.662;23.260;2023-06-10T05:46:47;93760.44;;;21.16;74.94
20009;BME280;10165;42.662;23.260;2023-06-10T05:49:14;93765.47;;;21.69;73.46
20009;BME280;10165;42.662;23.260;2023-06-10T05:51:41;93757.97;;;21.21;75.09
20009;BME280;10165;42.662;23.260;2023-06-10T05:54:07;93770.22;;;21.29;74.44
20009;BME280;10165;42.662;23.260;2023-06-10T05:56:34;93765.09;;;21.51;73.76
20009;BME280;10165;42.662;23.260;2023-06-10T05:59:01;93771.03;;;21.62;72.77
20009;BME280;10165;42.662;23.260;2023-06-10T06:01:28;93777.50;;;21.52;70.79
20009;BME280;10165;42.662;23.260;2023-06-10T06:03:54;93778.69;;;21.31;71.52
20009;BME280;10165;42.662;23.260;2023-06-10T06:06:21;93773.97;;;21.35;71.98
20009;BME280;10165;42.662;23.260;2023-06-10T06:08:48;93777.28;;;21.27;73.45
20009;BME280;10165;42.662;23.260;2023-06-10T06:11:15;93768.88;;;21.37;74.21
20009;BME280;10165;42.662;23.260;2023-06-10T06:13:42;93769.34;;;21.52;73.86
20009;BME280;10165;42.662;23.260;2023-06-10T06:16:08;93765.88;;;21.32;73.84
20009;BME280;10165;42.662;23.260;2023-06-10T06:18:35;93772.22;;;21.45;73.63
20009;BME280;10165;42.662;23.260;2023-06-10T06:21:02;93770.00;;;21.40;74.66
20009;BME280;10165;42.662;23.260;2023-06-10T06:23:29;93771.94;;;21.39;73.13
20009;BME280;10165;42.662;23.260;2023-06-10T06:25:56;93782.00;;;21.59;71.94
20009;BME280;10165;42.662;23.260;2023-06-10T06:28:23;93781.59;;;21.60;71.68
20009;BME280;10165;42.662;23.260;2023-06-10T06:30:56;93777.28;;;21.79;70.66
20009;BME280;10165;42.662;23.260;2023-06-10T06:33:23;93776.34;;;21.33;73.93
20009;BME280;10165;42.662;23.260;2023-06-10T06:35:50;93782.25;;;21.28;72.50
20009;BME280;10165;42.662;23.260;2023-06-10T06:38:17;93790.03;;;21.82;70.66
20009;BME280;10165;42.662;23.260;2023-06-10T06:40:44;93776.94;;;21.61;70.06
20009;BME280;10165;42.662;23.260;2023-06-10T06:43:10;93779.47;;;21.68;68.51
20009;BME280;10165;42.662;23.260;2023-06-10T06:45:37;93776.03;;;21.48;70.87
20009;BME280;10165;42.662;23.260;2023-06-10T06:48:05;93777.97;;;21.47;70.00
20009;BME280;10165;42.662;23.260;2023-06-10T06:50:32;93768.34;;;21.78;69.89
20009;BME280;10165;42.662;23.260;2023-06-10T06:52:59;93768.53;;;21.87;68.60
20009;BME280;10165;42.662;23.260;2023-06-10T06:55:25;93764.50;;;21.96;68.42
20009;BME280;10165;42.662;23.260;2023-06-10T06:57:52;93767.47;;;22.17;68.87
20009;BME280;10165;42.662;23.260;2023-06-10T07:00:19;93769.22;;;22.40;67.03
20009;BME280;10165;42.662;23.260;2023-06-10T07:02:46;93765.84;;;22.36;67.02
20009;BME280;10165;42.662;23.260;2023-06-10T07:05:13;93760.34;;;22.07;67.75
20009;BME280;10165;42.662;23.260;2023-06-10T07:07:40;93763.22;;;22.32;68.19
20009;BME280;10165;42.662;23.260;2023-06-10T07:10:07;93756.41;;;22.85;66.84
20009;BME280;10165;42.662;23.260;2023-06-10T07:12:34;93749.88;;;22.67;65.20
20009;BME280;10165;42.662;23.260;2023-06-10T07:15:00;93748.81;;;22.48;65.55
20009;BME280;10165;42.662;23.260;2023-06-10T07:17:27;93759.63;;;23.09;63.91
20009;BME280;10165;42.662;23.260;2023-06-10T07:19:54;93753.44;;;22.80;64.95
20009;BME280;10165;42.662;23.260;2023-06-10T07:22:23;93749.03;;;22.70;64.73
20009;BME280;10165;42.662;23.260;2023-06-10T07:24:50;93743.66;;;22.66;63.72
20009;BME280;10165;42.662;23.260;2023-06-10T07:27:19;93744.63;;;23.17;62.50
20009;BME280;10165;42.662;23.260;2023-06-10T07:29:46;93753.72;;;22.98;60.73
20009;BME280;10165;42.662;23.260;2023-06-10T07:32:13;93756.69;;;22.75;61.20
20009;BME280;10165;42.662;23.260;2023-06-10T07:34:40;93753.44;;;23.21;60.67
20009;BME280;10165;42.662;23.260;2023-06-10T07:37:07;93748.63;;;23.13;60.21
20009;BME280;10165;42.662;23.260;2023-06-10T07:39:35;93758.03;;;23.24;59.74
20009;BME280;10165;42.662;23.260;2023-06-10T07:42:01;93755.94;;;22.58;59.68
20009;BME280;10165;42.662;23.260;2023-06-10T07:44:28;93748.72;;;22.52;61.90
20009;BME280;10165;42.662;23.260;2023-06-10T07:46:55;93752.28;;;22.94;61.12
20009;BME280;10165;42.662;23.260;2023-06-10T07:49:22;93748.09;;;22.60;62.34
20009;BME280;10165;42.662;23.260;2023-06-10T07:51:50;93747.78;;;23.28;59.13
20009;BME280;10165;42.662;23.260;2023-06-10T07:54:16;93752.59;;;23.37;58.01
20009;BME280;10165;42.662;23.260;2023-06-10T07:56:43;93750.41;;;23.32;58.03
20009;BME280;10165;42.662;23.260;2023-06-10T07:59:10;93748.84;;;23.60;57.21
20009;BME280;10165;42.662;23.260;2023-06-10T08:01:36;93760.06;;;23.49;57.25
20009;BME280;10165;42.662;23.260;2023-06-10T08:04:06;93753.13;;;23.32;58.27
20009;BME280;10165;42.662;23.260;2023-06-10T08:06:33;93755.34;;;23.37;53.72
20009;BME280;10165;42.662;23.260;2023-06-10T08:09:00;93752.22;;;23.51;54.72
20009;BME280;10165;42.662;23.260;2023-06-10T08:11:27;93747.28;;;23.84;52.77
20009;BME280;10165;42.662;23.260;2023-06-10T08:13:55;93740.22;;;23.87;53.99
20009;BME280;10165;42.662;23.260;2023-06-10T08:16:21;93740.44;;;23.67;52.68
20009;BME280;10165;42.662;23.260;2023-06-10T08:18:48;93739.78;;;23.88;54.50
20009;BME280;10165;42.662;23.260;2023-06-10T08:21:20;93740.84;;;23.40;54.17
20009;BME280;10165;42.662;23.260;2023-06-10T08:23:47;93738.38;;;23.46;55.50
20009;BME280;10165;42.662;23.260;2023-06-10T08:26:14;93732.81;;;23.74;55.83
20009;BME280;10165;42.662;23.260;2023-06-10T08:28:41;93726.03;;;24.17;53.66
20009;BME280;10165;42.662;23.260;2023-06-10T08:31:08;93721.25;;;23.83;50.52
20009;BME280;10165;42.662;23.260;2023-06-10T08:33:35;93728.19;;;23.97;50.49
20009;BME280;10165;42.662;23.260;2023-06-10T08:36:02;93731.38;;;23.95;49.83
20009;BME280;10165;42.662;23.260;2023-06-10T08:38:28;93720.72;;;24.35;48.71
20009;BME280;10165;42.662;23.260;2023-06-10T08:40:59;93724.47;;;24.03;48.45
20009;BME280;10165;42.662;23.260;2023-06-10T08:43:34;93721.38;;;24.39;48.21
20009;BME280;10165;42.662;23.260;2023-06-10T08:46:03;93724.47;;;24.28;47.05
20009;BME280;10165;42.662;23.260;2023-06-10T08:48:30;93726.66;;;23.32;48.45
20009;BME280;10165;42.662;23.260;2023-06-10T08:50:58;93716.00;;;24.14;48.40
20009;BME280;10165;42.662;23.260;2023-06-10T08:53:26;93721.59;;;24.45;46.70
20009;BME280;10165;42.662;23.260;2023-06-10T08:55:54;93708.38;;;24.65;45.84
20009;BME280;10165;42.662;23.260;2023-06-10T08:58:24;93710.97;;;24.47;46.58
20009;BME280;10165;42.662;23.260;2023-06-10T09:00:52;93705.91;;;24.23;47.29
20009;BME280;10165;42.662;23.260;2023-06-10T09:03:19;93701.84;;;24.41;46.03
20009;BME280;10165;42.662;23.260;2023-06-10T09:05:46;93704.72;;;24.59;45.77
20009;BME280;10165;42.662;23.260;2023-06-10T09:08:15;93707.91;;;24.79;45.32
20009;BME280;10165;42.662;23.260;2023-06-10T09:10:42;93696.19;;;24.91;45.17
20009;BME280;10165;42.662;23.260;2023-06-10T09:13:09;93699.00;;;24.88;46.12
20009;BME280;10165;42.662;23.260;2023-06-10T09:15:35;93689.41;;;24.61;47.22
20009;BME280;10165;42.662;23.260;2023-06-10T09:18:02;93706.97;;;25.16;45.91
20009;BME280;10165;42.662;23.260;2023-06-10T09:20:31;93701.50;;;25.16;43.35
20009;BME280;10165;42.662;23.260;2023-06-10T09:22:59;93696.44;;;25.37;43.76
20009;BME280;10165;42.662;23.260;2023-06-10T09:25:37;93698.69;;;25.60;44.59
20009;BME280;10165;42.662;23.260;2023-06-10T09:28:04;93684.66;;;25.89;43.87
20009;BME280;10165;42.662;23.260;2023-06-10T09:30:33;93686.63;;;25.88;44.50
20009;BME280;10165;42.662;23.260;2023-06-10T09:33:13;93688.63;;;24.61;46.96
20009;BME280;10165;42.662;23.260;2023-06-10T09:35:46;93692.47;;;24.63;47.22
20009;BME280;10165;42.662;23.260;2023-06-10T09:38:22;93686.44;;;24.34;48.03
20009;BME280;10165;42.662;23.260;2023-06-10T09:40:51;93677.31;;;25.15;46.79
20009;BME280;10165;42.662;23.260;2023-06-10T09:43:18;93677.47;;;24.68;45.89
20009;BME280;10165;42.662;23.260;2023-06-10T09:45:48;93674.56;;;25.06;44.26
20009;BME280;10165;42.662;23.260;2023-06-10T09:48:15;93673.09;;;24.92;44.19
20009;BME280;10165;42.662;23.260;2023-06-10T09:50:43;93680.66;;;24.88;44.60
20009;BME280;10165;42.662;23.260;2023-06-10T09:53:11;93670.25;;;24.40;46.36
20009;BME280;10165;42.662;23.260;2023-06-10T09:55:38;93666.03;;;25.04;43.62
20009;BME280;10165;42.662;23.260;2023-06-10T09:58:05;93665.31;;;24.69;43.10
20009;BME280;10165;42.662;23.260;2023-06-10T10:00:36;93665.38;;;25.21;44.74
20009;BME280;10165;42.662;23.260;2023-06-10T10:03:03;93666.38;;;25.37;45.09
20009;BME280;10165;42.662;23.260;2023-06-10T10:05:29;93666.47;;;24.81;45.49
20009;BME280;10165;42.662;23.260;2023-06-10T10:07:57;93655.06;;;25.56;44.68
20009;BME280;10165;42.662;23.260;2023-06-10T10:10:24;93652.91;;;25.20;45.99
20009;BME280;10165;42.662;23.260;2023-06-10T10:12:54;93648.00;;;25.46;45.32
20009;BME280;10165;42.662;23.260;2023-06-10T10:15:24;93646.53;;;25.23;45.90
20009;BME280;10165;42.662;23.260;2023-06-10T10:18:01;93647.56;;;25.48;44.67
20009;BME280;10165;42.662;23.260;2023-06-10T10:20:33;93648.59;;;25.81;45.00
20009;BME280;10165;42.662;23.260;2023-06-10T10:23:03;93638.09;;;25.80;44.15
20009;BME280;10165;42.662;23.260;2023-06-10T10:25:40;93642.53;;;25.06;43.86
20009;BME280;10165;42.662;23.260;2023-06-10T10:28:10;93632.16;;;25.72;43.92
20009;BME280;10165;42.662;23.260;2023-06-10T10:30:52;93635.53;;;25.85;42.74
20009;BME280;10165;42.662;23.260;2023-06-10T10:33:22;93636.47;;;26.00;43.57
20009;BME280;10165;42.662;23.260;2023-06-10T10:35:55;93636.16;;;25.49;43.27
20009;BME280;10165;42.662;23.260;2023-06-10T10:38:22;93641.41;;;25.65;43.42
20009;BME280;10165;42.662;23.260;2023-06-10T10:40:49;93635.66;;;25.63;42.53
20009;BME280;10165;42.662;23.260;2023-06-10T10:43:17;93635.09;;;25.87;41.97
20009;BME280;10165;42.662;23.260;2023-06-10T10:45:58;93626.13;;;26.04;41.54
20009;BME280;10165;42.662;23.260;2023-06-10T10:48:26;93628.25;;;25.91;41.39
20009;BME280;10165;42.662;23.260;2023-06-10T10:50:57;93624.97;;;26.24;42.04
20009;BME280;10165;42.662;23.260;2023-06-10T10:53:24;93626.75;;;26.08;41.31
20009;BME280;10165;42.662;23.260;2023-06-10T10:56:14;93618.97;;;25.89;41.62
20009;BME280;10165;42.662;23.260;2023-06-10T10:58:41;93618.75;;;25.56;41.32
20009;BME280;10165;42.662;23.260;2023-06-10T11:01:12;93612.47;;;26.23;42.04
20009;BME280;10165;42.662;23.260;2023-06-10T11:03:43;93622.50;;;25.98;39.08
20009;BME280;10165;42.662;23.260;2023-06-10T11:06:16;93614.56;;;26.00;40.32
20009;BME280;10165;42.662;23.260;2023-06-10T11:11:27;93607.56;;;25.99;39.68
20009;BME280;10165;42.662;23.260;2023-06-10T11:16:43;93599.78;;;25.31;41.55
20009;BME280;10165;42.662;23.260;2023-06-10T11:19:10;93593.00;;;26.39;42.13
20009;BME280;10165;42.662;23.260;2023-06-10T11:22:01;93594.06;;;26.05;41.56
20009;BME280;10165;42.662;23.260;2023-06-10T11:24:29;93592.56;;;26.22;40.43
20009;BME280;10165;42.662;23.260;2023-06-10T11:27:16;93583.97;;;26.84;39.46
20009;BME280;10165;42.662;23.260;2023-06-10T11:32:33;93577.47;;;26.63;38.78
20009;BME280;10165;42.662;23.260;2023-06-10T11:35:04;93573.25;;;26.35;38.95
20009;BME280;10165;42.662;23.260;2023-06-10T11:37:31;93571.66;;;26.70;41.13
20009;BME280;10165;42.662;23.260;2023-06-10T11:39:58;93578.97;;;25.91;40.90
20009;BME280;10165;42.662;23.260;2023-06-10T11:42:25;93573.03;;;25.75;41.30
20009;BME280;10165;42.662;23.260;2023-06-10T11:44:53;93570.50;;;26.35;41.13
20009;BME280;10165;42.662;23.260;2023-06-10T11:47:20;93572.72;;;26.73;39.49
20009;BME280;10165;42.662;23.260;2023-06-10T11:49:58;93564.06;;;26.65;39.93
20009;BME280;10165;42.662;23.260;2023-06-10T11:52:29;93566.84;;;26.20;40.08
20009;BME280;10165;42.662;23.260;2023-06-10T11:54:59;93567.72;;;26.53;40.08
20009;BME280;10165;42.662;23.260;2023-06-10T11:57:25;93568.22;;;26.24;39.78
20009;BME280;10165;42.662;23.260;2023-06-10T11:59:52;93570.19;;;26.60;40.10
20009;BME280;10165;42.662;23.260;2023-06-10T12:02:19;93562.56;;;26.00;39.93
20009;BME280;10165;42.662;23.260;2023-06-10T12:04:46;93566.66;;;25.96;40.40
20009;BME280;10165;42.662;23.260;2023-06-10T12:07:18;93561.06;;;26.08;40.62
20009;BME280;10165;42.662;23.260;2023-06-10T12:09:46;93566.47;;;26.81;40.96
20009;BME280;10165;42.662;23.260;2023-06-10T12:12:13;93559.41;;;27.07;40.50
20009;BME280;10165;42.662;23.260;2023-06-10T12:14:56;93563.91;;;27.20;37.77
20009;BME280;10165;42.662;23.260;2023-06-10T12:20:02;93564.41;;;26.40;38.78
20009;BME280;10165;42.662;23.260;2023-06-10T12:25:05;93554.38;;;27.39;39.44
20009;BME280;10165;42.662;23.260;2023-06-10T12:27:34;93552.56;;;27.36;39.32
20009;BME280;10165;42.662;23.260;2023-06-10T12:30:03;93557.06;;;27.15;39.47
20009;BME280;10165;42.662;23.260;2023-06-10T12:32:45;93558.84;;;26.94;39.89
20009;BME280;10165;42.662;23.260;2023-06-10T12:35:22;93547.59;;;26.83;39.70
20009;BME280;10165;42.662;23.260;2023-06-10T12:38:01;93542.22;;;26.29;43.38
20009;BME280;10165;42.662;23.260;2023-06-10T12:40:32;93543.66;;;26.66;40.13
20009;BME280;10165;42.662;23.260;2023-06-10T12:42:59;93540.19;;;27.07;38.83
20009;BME280;10165;42.662;23.260;2023-06-10T12:45:37;93536.28;;;27.32;38.33
20009;BME280;10165;42.662;23.260;2023-06-10T12:48:21;93546.78;;;27.01;38.14
20009;BME280;10165;42.662;23.260;2023-06-10T12:50:52;93546.59;;;27.14;35.56
20009;BME280;10165;42.662;23.260;2023-06-10T12:53:20;93549.72;;;26.79;36.13
20009;BME280;10165;42.662;23.260;2023-06-10T12:55:47;93547.88;;;26.94;38.71
20009;BME280;10165;42.662;23.260;2023-06-10T12:58:14;93547.88;;;26.94;37.40
20009;BME280;10165;42.662;23.260;2023-06-10T13:00:40;93553.13;;;26.56;36.27
20009;BME280;10165;42.662;23.260;2023-06-10T13:03:09;93549.59;;;26.74;35.79
20009;BME280;10165;42.662;23.260;2023-06-10T13:05:36;93553.09;;;26.74;34.30
20009;BME280;10165;42.662;23.260;2023-06-10T13:08:06;93556.31;;;26.45;33.97
20009;BME280;10165;42.662;23.260;2023-06-10T13:10:42;93553.09;;;26.74;33.88
20009;BME280;10165;42.662;23.260;2023-06-10T13:13:09;93551.91;;;26.57;33.41
20009;BME280;10165;42.662;23.260;2023-06-10T13:15:36;93570.16;;;26.14;34.30
20009;BME280;10165;42.662;23.260;2023-06-10T13:18:08;93570.44;;;24.17;45.39